sensor_id;sensor_type;location;lat;lon;timestamp;P1;durP1;ratioP1;P2;durP2;ratioP2
60718;SDS011;46567;51.660;5.824;2022-12-04T00:02:27;54.6;;;21.7;;
60718;SDS011;46567;51.660;5.824;2022-12-04T00:07:27;53.3;;;21.2;;
60718;SDS011;46567;51.660;5.824;2022-12-04T00:12:27;56.1;;;23.2;;
60718;SDS011;46567;51.660;5.824;2022-12-04T00:17:27;57.0;;;23.2;;
60718;SDS011;46567;51.660;5.824;2022-12-04T00:22:27;54.3;;;21.8;;
60718;SDS011;46567;51.660;5.824;2022-12-04T00:27:27;54.0;;;21.5;;
60718;SDS011;46567;51.660;5.824;2022-12-04T00:32:27;52.0;;;19.2;;
60718;SDS011;46567;51.660;5.824;2022-12-04T00:37:27;53.7;;;21.6;;
60718;SDS011;46567;51.660;5.824;2022-12-04T00:42:27;63.5;;;23.7;;
60718;SDS011;46567;51.660;5.824;2022-12-04T00:47:27;52.5;;;21.0;;
60718;SDS011;46567;51.660;5.824;2022-12-04T00:52:27;57.9;;;23.5;;
60718;SDS011;46567;51.660;5.824;2022-12-04T00:57:27;56.9;;;23.1;;
60718;SDS011;46567;51.660;5.824;2022-12-04T01:02:27;56.7;;;23.1;;
60718;SDS011;46567;51.660;5.824;2022-12-04T01:07:27;53.1;;;21.7;;
60718;SDS011;46567;51.660;5.824;2022-12-04T01:12:27;61.7;;;23.9;;
60718;SDS011;46567;51.660;5.824;2022-12-04T01:17:27;60.9;;;24.2;;
60718;SDS011;46567;51.660;5.824;2022-12-04T01:22:27;53.9;;;22.2;;
60718;SDS011;46567;51.660;5.824;2022-12-04T01:27:27;56.5;;;24.0;;
60718;SDS011;46567;51.660;5.824;2022-12-04T01:32:27;56.7;;;23.2;;
60718;SDS011;46567;51.660;5.824;2022-12-04T01:37:28;55.2;;;21.9;;
60718;SDS011;46567;51.660;5.824;2022-12-04T01:42:27;61.9;;;24.0;;
60718;SDS011;46567;51.660;5.824;2022-12-04T01:47:27;59.0;;;24.7;;
60718;SDS011;46567;51.660;5.824;2022-12-04T01:52:27;58.3;;;24.2;;
60718;SDS011;46567;51.660;5.824;2022-12-04T01:57:30;56.5;;;21.1;;
60718;SDS011;46567;51.660;5.824;2022-12-04T02:02:28;55.5;;;22.0;;
60718;SDS011;46567;51.660;5.824;2022-12-04T02:07:27;60.9;;;24.1;;
60718;SDS011;46567;51.660;5.824;2022-12-04T02:12:32;61.8;;;23.1;;
60718;SDS011;46567;51.660;5.824;2022-12-04T02:17:47;63.8;;;28.5;;
60718;SDS011;46567;51.660;5.824;2022-12-04T02:22:52;56.0;;;22.9;;
60718;SDS011;46567;51.660;5.824;2022-12-04T02:28:02;57.4;;;23.4;;
60718;SDS011;46567;51.660;5.824;2022-12-04T02:32:44;59.5;;;24.9;;
60718;SDS011;46567;51.660;5.824;2022-12-04T02:37:31;57.9;;;22.2;;
60718;SDS011;46567;51.660;5.824;2022-12-04T02:42:32;54.4;;;23.1;;
60718;SDS011;46567;51.660;5.824;2022-12-04T02:47:27;60.2;;;23.6;;
60718;SDS011;46567;51.660;5.824;2022-12-04T02:52:34;56.0;;;22.9;;
60718;SDS011;46567;51.660;5.824;2022-12-04T02:57:32;57.1;;;26.0;;
60718;SDS011;46567;51.660;5.824;2022-12-04T03:02:32;53.9;;;22.5;;
60718;SDS011;46567;51.660;5.824;2022-12-04T03:07:39;50.6;;;20.6;;
60718;SDS011;46567;51.660;5.824;2022-12-04T03:12:28;62.1;;;24.2;;
60718;SDS011;46567;51.660;5.824;2022-12-04T03:17:29;59.1;;;24.1;;
60718;SDS011;46567;51.660;5.824;2022-12-04T03:22:27;56.5;;;24.6;;
60718;SDS011;46567;51.660;5.824;2022-12-04T03:27:58;57.1;;;23.2;;
60718;SDS011;46567;51.660;5.824;2022-12-04T03:32:32;61.9;;;25.2;;
60718;SDS011;46567;51.660;5.824;2022-12-04T03:37:28;61.0;;;23.8;;
60718;SDS011;46567;51.660;5.824;2022-12-04T03:42:30;53.9;;;22.7;;
60718;SDS011;46567;51.660;5.824;2022-12-04T03:47:44;66.3;;;25.3;;
60718;SDS011;46567;51.660;5.824;2022-12-04T03:52:29;53.6;;;21.7;;
60718;SDS011;46567;51.660;5.824;2022-12-04T03:57:28;61.8;;;25.2;;
60718;SDS011;46567;51.660;5.824;2022-12-04T04:02:27;59.7;;;24.1;;
60718;SDS011;46567;51.660;5.824;2022-12-04T04:07:35;59.1;;;24.4;;
60718;SDS011;46567;51.660;5.824;2022-12-04T04:12:37;57.2;;;23.0;;
60718;SDS011;46567;51.660;5.824;2022-12-04T04:17:33;61.5;;;24.5;;
60718;SDS011;46567;51.660;5.824;2022-12-04T04:22:27;57.9;;;21.0;;
60718;SDS011;46567;51.660;5.824;2022-12-04T04:27:27;62.4;;;26.3;;
60718;SDS011;46567;51.660;5.824;2022-12-04T04:32:30;60.9;;;24.6;;
60718;SDS011;46567;51.660;5.824;2022-12-04T04:37:33;64.2;;;25.4;;
60718;SDS011;46567;51.660;5.824;2022-12-04T04:42:33;61.6;;;25.4;;
60718;SDS011;46567;51.660;5.824;2022-12-04T04:47:32;61.7;;;25.0;;
60718;SDS011;46567;51.660;5.824;2022-12-04T04:52:27;64.5;;;26.0;;
60718;SDS011;46567;51.660;5.824;2022-12-04T04:57:27;57.8;;;25.2;;
60718;SDS011;46567;51.660;5.824;2022-12-04T05:02:27;65.7;;;25.9;;
60718;SDS011;46567;51.660;5.824;2022-12-04T05:07:27;57.0;;;24.5;;
60718;SDS011;46567;51.660;5.824;2022-12-04T05:12:27;57.5;;;23.2;;
60718;SDS011;46567;51.660;5.824;2022-12-04T05:17:27;61.5;;;24.7;;
60718;SDS011;46567;51.660;5.824;2022-12-04T05:22:28;62.2;;;24.9;;
60718;SDS011;46567;51.660;5.824;2022-12-04T05:27:28;63.4;;;26.3;;
60718;SDS011;46567;51.660;5.824;2022-12-04T05:32:27;65.3;;;26.6;;
60718;SDS011;46567;51.660;5.824;2022-12-04T05:37:27;61.9;;;24.6;;
60718;SDS011;46567;51.660;5.824;2022-12-04T05:42:27;57.5;;;23.3;;
60718;SDS011;46567;51.660;5.824;2022-12-04T05:47:27;57.3;;;22.5;;
60718;SDS011;46567;51.660;5.824;2022-12-04T05:52:27;54.9;;;22.8;;
60718;SDS011;46567;51.660;5.824;2022-12-04T05:57:27;56.2;;;23.1;;
60718;SDS011;46567;51.660;5.824;2022-12-04T06:02:27;53.7;;;20.9;;
60718;SDS011;46567;51.660;5.824;2022-12-04T06:07:27;57.9;;;23.0;;
60718;SDS011;46567;51.660;5.824;2022-12-04T06:12:28;56.3;;;23.7;;
60718;SDS011;46567;51.660;5.824;2022-12-04T06:17:27;56.2;;;24.0;;
60718;SDS011;46567;51.660;5.824;2022-12-04T06:22:27;54.0;;;22.7;;
60718;SDS011;46567;51.660;5.824;2022-12-04T06:27:27;53.2;;;23.8;;
60718;SDS011;46567;51.660;5.824;2022-12-04T06:32:27;56.6;;;24.7;;
60718;SDS011;46567;51.660;5.824;2022-12-04T06:37:27;54.4;;;23.7;;
60718;SDS011;46567;51.660;5.824;2022-12-04T06:42:27;49.0;;;20.1;;
60718;SDS011;46567;51.660;5.824;2022-12-04T06:47:27;51.6;;;21.7;;
60718;SDS011;46567;51.660;5.824;2022-12-04T06:52:27;49.3;;;22.5;;
60718;SDS011;46567;51.660;5.824;2022-12-04T06:57:27;50.9;;;21.6;;
60718;SDS011;46567;51.660;5.824;2022-12-04T07:02:27;50.0;;;20.6;;
60718;SDS011;46567;51.660;5.824;2022-12-04T07:07:27;45.3;;;21.9;;
60718;SDS011;46567;51.660;5.824;2022-12-04T07:12:27;46.1;;;19.8;;
60718;SDS011;46567;51.660;5.824;2022-12-04T07:17:27;42.6;;;20.3;;
60718;SDS011;46567;51.660;5.824;2022-12-04T07:22:27;46.8;;;19.7;;
60718;SDS011;46567;51.660;5.824;2022-12-04T07:27:28;45.2;;;19.3;;
60718;SDS011;46567;51.660;5.824;2022-12-04T07:32:27;45.8;;;18.4;;
60718;SDS011;46567;51.660;5.824;2022-12-04T07:37:27;41.3;;;18.4;;
60718;SDS011;46567;51.660;5.824;2022-12-04T07:42:27;43.7;;;22.2;;
60718;SDS011;46567;51.660;5.824;2022-12-04T07:47:27;48.6;;;21.5;;
60718;SDS011;46567;51.660;5.824;2022-12-04T07:52:27;51.5;;;23.0;;
60718;SDS011;46567;51.660;5.824;2022-12-04T07:57:27;47.6;;;20.0;;
60718;SDS011;46567;51.660;5.824;2022-12-04T08:02:27;47.2;;;19.7;;
60718;SDS011;46567;51.660;5.824;2022-12-04T08:07:27;42.1;;;16.6;;
60718;SDS011;46567;51.660;5.824;2022-12-04T08:12:27;42.4;;;18.5;;
60718;SDS011;46567;51.660;5.824;2022-12-04T08:17:27;40.2;;;19.8;;
60718;SDS011;46567;51.660;5.824;2022-12-04T08:22:27;40.0;;;18.2;;
60718;SDS011;46567;51.660;5.824;2022-12-04T08:27:27;39.0;;;17.7;;
60718;SDS011;46567;51.660;5.824;2022-12-04T08:32:27;39.5;;;18.1;;
60718;SDS011;46567;51.660;5.824;2022-12-04T08:37:27;42.8;;;18.2;;
60718;SDS011;46567;51.660;5.824;2022-12-04T08:42:27;37.5;;;18.3;;
60718;SDS011;46567;51.660;5.824;2022-12-04T08:47:27;34.9;;;17.3;;
60718;SDS011;46567;51.660;5.824;2022-12-04T08:52:27;35.1;;;16.9;;
60718;SDS011;46567;51.660;5.824;2022-12-04T08:57:27;32.9;;;14.8;;
60718;SDS011;46567;51.660;5.824;2022-12-04T09:02:27;27.8;;;12.4;;
60718;SDS011;46567;51.660;5.824;2022-12-04T09:07:27;28.8;;;11.8;;
60718;SDS011;46567;51.660;5.824;2022-12-04T09:12:27;29.2;;;14.4;;
60718;SDS011;46567;51.660;5.824;2022-12-04T09:17:27;29.9;;;14.3;;
60718;SDS011;46567;51.660;5.824;2022-12-04T09:22:27;32.8;;;14.8;;
60718;SDS011;46567;51.660;5.824;2022-12-04T09:27:27;29.1;;;13.3;;
60718;SDS011;46567;51.660;5.824;2022-12-04T09:32:27;30.3;;;14.6;;
60718;SDS011;46567;51.660;5.824;2022-12-04T09:37:27;30.8;;;15.2;;
60718;SDS011;46567;51.660;5.824;2022-12-04T09:43:01;32.8;;;14.6;;
60718;SDS011;46567;51.660;5.824;2022-12-04T09:47:32;31.4;;;14.5;;
60718;SDS011;46567;51.660;5.824;2022-12-04T09:52:43;32.5;;;14.1;;
60718;SDS011;46567;51.660;5.824;2022-12-04T09:57:41;28.6;;;13.8;;
60718;SDS011;46567;51.660;5.824;2022-12-04T10:02:39;27.3;;;13.3;;
60718;SDS011;46567;51.660;5.824;2022-12-04T10:07:43;27.5;;;14.2;;
60718;SDS011;46567;51.660;5.824;2022-12-04T10:13:00;24.0;;;12.7;;
60718;SDS011;46567;51.660;5.824;2022-12-04T10:18:01;28.7;;;13.5;;
60718;SDS011;46567;51.660;5.824;2022-12-04T10:23:41;28.7;;;13.8;;
60718;SDS011;46567;51.660;5.824;2022-12-04T10:27:28;27.1;;;13.3;;
60718;SDS011;46567;51.660;5.824;2022-12-04T10:37:27;28.1;;;14.2;;
60718;SDS011;46567;51.660;5.824;2022-12-04T10:42:30;27.5;;;15.0;;
60718;SDS011;46567;51.660;5.824;2022-12-04T10:47:27;25.0;;;13.9;;
60718;SDS011;46567;51.660;5.824;2022-12-04T10:52:27;28.8;;;13.0;;
60718;SDS011;46567;51.660;5.824;2022-12-04T10:57:33;24.9;;;13.7;;
60718;SDS011;46567;51.660;5.824;2022-12-04T11:02:27;28.2;;;14.5;;
60718;SDS011;46567;51.660;5.824;2022-12-04T11:07:27;27.5;;;13.5;;
60718;SDS011;46567;51.660;5.824;2022-12-04T11:12:27;26.1;;;13.0;;
60718;SDS011;46567;51.660;5.824;2022-12-04T11:17:27;28.3;;;14.4;;
60718;SDS011;46567;51.660;5.824;2022-12-04T11:22:27;24.6;;;13.5;;
60718;SDS011;46567;51.660;5.824;2022-12-04T11:27:30;26.9;;;14.8;;
60718;SDS011;46567;51.660;5.824;2022-12-04T11:32:29;27.5;;;14.0;;
60718;SDS011;46567;51.660;5.824;2022-12-04T11:37:29;29.2;;;13.6;;
60718;SDS011;46567;51.660;5.824;2022-12-04T11:42:30;23.1;;;12.7;;
60718;SDS011;46567;51.660;5.824;2022-12-04T11:47:30;25.9;;;13.7;;
60718;SDS011;46567;51.660;5.824;2022-12-04T11:53:04;26.0;;;13.4;;
60718;SDS011;46567;51.660;5.824;2022-12-04T11:57:35;26.3;;;14.0;;
60718;SDS011;46567;51.660;5.824;2022-12-04T12:02:53;26.3;;;15.8;;
60718;SDS011;46567;51.660;5.824;2022-12-04T12:07:58;27.8;;;14.9;;
60718;SDS011;46567;51.660;5.824;2022-12-04T12:12:40;25.3;;;13.7;;
60718;SDS011;46567;51.660;5.824;2022-12-04T12:17:50;24.9;;;13.0;;
60718;SDS011;46567;51.660;5.824;2022-12-04T12:22:39;25.0;;;13.1;;
60718;SDS011;46567;51.660;5.824;2022-12-04T12:27:57;23.4;;;13.8;;
60718;SDS011;46567;51.660;5.824;2022-12-04T12:33:18;23.3;;;12.4;;
60718;SDS011;46567;51.660;5.824;2022-12-04T12:37:30;25.6;;;13.4;;
60718;SDS011;46567;51.660;5.824;2022-12-04T12:42:27;23.8;;;12.5;;
60718;SDS011;46567;51.660;5.824;2022-12-04T12:47:42;25.8;;;12.2;;
60718;SDS011;46567;51.660;5.824;2022-12-04T12:52:45;25.6;;;14.5;;
60718;SDS011;46567;51.660;5.824;2022-12-04T12:57:30;25.4;;;14.0;;
60718;SDS011;46567;51.660;5.824;2022-12-04T13:02:27;24.3;;;12.7;;
60718;SDS011;46567;51.660;5.824;2022-12-04T13:07:39;23.3;;;12.5;;
60718;SDS011;46567;51.660;5.824;2022-12-04T13:12:27;24.5;;;13.5;;
60718;SDS011;46567;51.660;5.824;2022-12-04T13:17:37;23.0;;;12.1;;
60718;SDS011;46567;51.660;5.824;2022-12-04T13:22:30;25.1;;;12.9;;
60718;SDS011;46567;51.660;5.824;2022-12-04T13:27:55;22.9;;;12.0;;
60718;SDS011;46567;51.660;5.824;2022-12-04T13:33:10;19.7;;;11.1;;
60718;SDS011;46567;51.660;5.824;2022-12-04T13:38:32;21.5;;;12.8;;
60718;SDS011;46567;51.660;5.824;2022-12-04T13:42:27;24.7;;;13.5;;
60718;SDS011;46567;51.660;5.824;2022-12-04T13:47:34;24.9;;;13.4;;
60718;SDS011;46567;51.660;5.824;2022-12-04T13:52:41;22.1;;;11.5;;
60718;SDS011;46567;51.660;5.824;2022-12-04T13:57:27;22.6;;;11.4;;
60718;SDS011;46567;51.660;5.824;2022-12-04T14:02:33;22.8;;;13.0;;
60718;SDS011;46567;51.660;5.824;2022-12-04T14:07:28;20.6;;;11.4;;
60718;SDS011;46567;51.660;5.824;2022-12-04T14:12:27;22.3;;;12.2;;
60718;SDS011;46567;51.660;5.824;2022-12-04T14:17:27;22.0;;;11.1;;
60718;SDS011;46567;51.660;5.824;2022-12-04T14:22:43;22.2;;;12.4;;
60718;SDS011;46567;51.660;5.824;2022-12-04T14:27:47;22.9;;;13.1;;
60718;SDS011;46567;51.660;5.824;2022-12-04T14:32:27;25.0;;;13.7;;
60718;SDS011;46567;51.660;5.824;2022-12-04T14:37:35;25.3;;;13.9;;
60718;SDS011;46567;51.660;5.824;2022-12-04T14:42:28;26.3;;;14.0;;
60718;SDS011;46567;51.660;5.824;2022-12-04T14:47:43;24.3;;;13.9;;
60718;SDS011;46567;51.660;5.824;2022-12-04T14:52:44;22.8;;;12.2;;
60718;SDS011;46567;51.660;5.824;2022-12-04T14:57:57;24.5;;;13.1;;
60718;SDS011;46567;51.660;5.824;2022-12-04T15:02:33;20.8;;;11.1;;
60718;SDS011;46567;51.660;5.824;2022-12-04T15:07:31;26.2;;;13.2;;
60718;SDS011;46567;51.660;5.824;2022-12-04T15:12:27;26.7;;;12.6;;
60718;SDS011;46567;51.660;5.824;2022-12-04T15:17:27;22.5;;;13.2;;
60718;SDS011;46567;51.660;5.824;2022-12-04T15:22:27;23.4;;;12.2;;
60718;SDS011;46567;51.660;5.824;2022-12-04T15:27:29;22.8;;;13.7;;
60718;SDS011;46567;51.660;5.824;2022-12-04T15:32:27;22.3;;;12.5;;
60718;SDS011;46567;51.660;5.824;2022-12-04T15:37:27;25.0;;;12.9;;
60718;SDS011;46567;51.660;5.824;2022-12-04T15:42:28;24.7;;;13.7;;
60718;SDS011;46567;51.660;5.824;2022-12-04T15:47:27;24.6;;;13.5;;
60718;SDS011;46567;51.660;5.824;2022-12-04T15:52:27;22.7;;;11.9;;
60718;SDS011;46567;51.660;5.824;2022-12-04T15:57:33;26.6;;;12.6;;
60718;SDS011;46567;51.660;5.824;2022-12-04T16:02:34;25.3;;;12.8;;
60718;SDS011;46567;51.660;5.824;2022-12-04T16:07:28;25.0;;;13.7;;
60718;SDS011;46567;51.660;5.824;2022-12-04T16:12:27;25.8;;;12.4;;
60718;SDS011;46567;51.660;5.824;2022-12-04T16:17:31;23.9;;;13.8;;
60718;SDS011;46567;51.660;5.824;2022-12-04T16:22:27;28.0;;;14.5;;
60718;SDS011;46567;51.660;5.824;2022-12-04T16:27:27;30.4;;;16.1;;
60718;SDS011;46567;51.660;5.824;2022-12-04T16:32:32;27.2;;;15.8;;
60718;SDS011;46567;51.660;5.824;2022-12-04T16:37:27;28.1;;;16.4;;
60718;SDS011;46567;51.660;5.824;2022-12-04T16:42:28;29.5;;;14.4;;
60718;SDS011;46567;51.660;5.824;2022-12-04T16:47:27;32.0;;;17.8;;
60718;SDS011;46567;51.660;5.824;2022-12-04T16:52:27;32.3;;;17.8;;
60718;SDS011;46567;51.660;5.824;2022-12-04T16:57:27;35.9;;;18.5;;
60718;SDS011;46567;51.660;5.824;2022-12-04T17:02:27;37.8;;;18.0;;
60718;SDS011;46567;51.660;5.824;2022-12-04T17:07:27;33.5;;;15.9;;
60718;SDS011;46567;51.660;5.824;2022-12-04T17:12:27;30.9;;;15.1;;
60718;SDS011;46567;51.660;5.824;2022-12-04T17:17:27;31.2;;;16.0;;
60718;SDS011;46567;51.660;5.824;2022-12-04T17:22:27;37.1;;;19.1;;
60718;SDS011;46567;51.660;5.824;2022-12-04T17:27:27;34.2;;;16.8;;
60718;SDS011;46567;51.660;5.824;2022-12-04T17:32:29;33.6;;;16.7;;
60718;SDS011;46567;51.660;5.824;2022-12-04T17:37:27;36.0;;;16.4;;
60718;SDS011;46567;51.660;5.824;2022-12-04T17:42:27;35.4;;;15.4;;
60718;SDS011;46567;51.660;5.824;2022-12-04T17:47:27;33.4;;;16.3;;
60718;SDS011;46567;51.660;5.824;2022-12-04T17:52:27;30.8;;;14.2;;
60718;SDS011;46567;51.660;5.824;2022-12-04T17:57:27;26.0;;;13.2;;
60718;SDS011;46567;51.660;5.824;2022-12-04T18:02:27;33.7;;;17.7;;
60718;SDS011;46567;51.660;5.824;2022-12-04T18:07:27;29.3;;;13.5;;
60718;SDS011;46567;51.660;5.824;2022-12-04T18:12:27;30.3;;;16.4;;
60718;SDS011;46567;51.660;5.824;2022-12-04T18:17:27;29.1;;;15.3;;
60718;SDS011;46567;51.660;5.824;2022-12-04T18:22:27;33.0;;;14.7;;
60718;SDS011;46567;51.660;5.824;2022-12-04T18:27:27;30.4;;;13.5;;
60718;SDS011;46567;51.660;5.824;2022-12-04T18:32:27;30.3;;;14.0;;
60718;SDS011;46567;51.660;5.824;2022-12-04T18:37:27;35.9;;;16.2;;
60718;SDS011;46567;51.660;5.824;2022-12-04T18:42:29;32.1;;;14.6;;
60718;SDS011;46567;51.660;5.824;2022-12-04T18:47:27;32.0;;;15.3;;
60718;SDS011;46567;51.660;5.824;2022-12-04T18:52:27;31.9;;;14.5;;
60718;SDS011;46567;51.660;5.824;2022-12-04T18:57:27;31.0;;;15.1;;
60718;SDS011;46567;51.660;5.824;2022-12-04T19:02:27;26.4;;;12.8;;
60718;SDS011;46567;51.660;5.824;2022-12-04T19:07:27;29.6;;;13.2;;
60718;SDS011;46567;51.660;5.824;2022-12-04T19:12:27;29.0;;;14.0;;
60718;SDS011;46567;51.660;5.824;2022-12-04T19:17:27;25.2;;;13.6;;
60718;SDS011;46567;51.660;5.824;2022-12-04T19:22:27;28.7;;;13.9;;
60718;SDS011;46567;51.660;5.824;2022-12-04T19:27:27;30.1;;;14.1;;
60718;SDS011;46567;51.660;5.824;2022-12-04T19:32:27;27.6;;;13.4;;
60718;SDS011;46567;51.660;5.824;2022-12-04T19:37:27;28.9;;;14.6;;
60718;SDS011;46567;51.660;5.824;2022-12-04T19:42:28;27.7;;;14.0;;
60718;SDS011;46567;51.660;5.824;2022-12-04T19:47:27;27.9;;;13.2;;
60718;SDS011;46567;51.660;5.824;2022-12-04T19:52:27;23.8;;;12.4;;
60718;SDS011;46567;51.660;5.824;2022-12-04T19:57:27;31.2;;;15.4;;
60718;SDS011;46567;51.660;5.824;2022-12-04T20:02:27;32.2;;;15.7;;
60718;SDS011;46567;51.660;5.824;2022-12-04T20:07:27;33.9;;;14.6;;
60718;SDS011;46567;51.660;5.824;2022-12-04T20:12:27;31.9;;;15.1;;
60718;SDS011;46567;51.660;5.824;2022-12-04T20:17:27;32.8;;;16.0;;
60718;SDS011;46567;51.660;5.824;2022-12-04T20:22:27;32.0;;;15.3;;
60718;SDS011;46567;51.660;5.824;2022-12-04T20:27:27;35.4;;;16.6;;
60718;SDS011;46567;51.660;5.824;2022-12-04T20:32:27;35.5;;;16.7;;
60718;SDS011;46567;51.660;5.824;2022-12-04T20:37:27;37.0;;;16.1;;
60718;SDS011;46567;51.660;5.824;2022-12-04T20:42:27;33.2;;;16.2;;
60718;SDS011;46567;51.660;5.824;2022-12-04T20:47:27;32.4;;;16.7;;
60718;SDS011;46567;51.660;5.824;2022-12-04T20:52:27;35.1;;;16.7;;
60718;SDS011;46567;51.660;5.824;2022-12-04T20:57:27;32.8;;;15.8;;
60718;SDS011;46567;51.660;5.824;2022-12-04T21:02:27;35.4;;;16.0;;
60718;SDS011;46567;51.660;5.824;2022-12-04T21:07:27;37.3;;;18.6;;
60718;SDS011;46567;51.660;5.824;2022-12-04T21:12:27;36.4;;;18.9;;
60718;SDS011;46567;51.660;5.824;2022-12-04T21:17:27;38.1;;;18.4;;
60718;SDS011;46567;51.660;5.824;2022-12-04T21:22:27;37.8;;;17.9;;
60718;SDS011;46567;51.660;5.824;2022-12-04T21:27:27;43.3;;;18.2;;
60718;SDS011;46567;51.660;5.824;2022-12-04T21:32:27;38.7;;;19.9;;
60718;SDS011;46567;51.660;5.824;2022-12-04T21:37:27;36.3;;;17.7;;
60718;SDS011;46567;51.660;5.824;2022-12-04T21:42:27;42.5;;;17.8;;
60718;SDS011;46567;51.660;5.824;2022-12-04T21:47:27;38.9;;;18.4;;
60718;SDS011;46567;51.660;5.824;2022-12-04T21:52:27;38.3;;;17.8;;
60718;SDS011;46567;51.660;5.824;2022-12-04T21:57:27;43.0;;;20.8;;
60718;SDS011;46567;51.660;5.824;2022-12-04T22:02:27;43.7;;;19.1;;
60718;SDS011;46567;51.660;5.824;2022-12-04T22:12:27;40.1;;;19.1;;
60718;SDS011;46567;51.660;5.824;2022-12-04T22:17:27;44.6;;;18.9;;
60718;SDS011;46567;51.660;5.824;2022-12-04T22:22:27;38.9;;;19.5;;
60718;SDS011;46567;51.660;5.824;2022-12-04T22:27:27;40.6;;;17.9;;
60718;SDS011;46567;51.660;5.824;2022-12-04T22:32:27;38.6;;;19.2;;
60718;SDS011;46567;51.660;5.824;2022-12-04T22:37:27;40.9;;;19.6;;
60718;SDS011;46567;51.660;5.824;2022-12-04T22:42:27;42.4;;;20.0;;
60718;SDS011;46567;51.660;5.824;2022-12-04T22:47:27;44.6;;;18.9;;
60718;SDS011;46567;51.660;5.824;2022-12-04T22:52:27;41.0;;;20.2;;
60718;SDS011;46567;51.660;5.824;2022-12-04T22:57:27;42.6;;;19.9;;
60718;SDS011;46567;51.660;5.824;2022-12-04T23:02:27;42.3;;;19.9;;
60718;SDS011;46567;51.660;5.824;2022-12-04T23:07:27;40.6;;;19.5;;
60718;SDS011;46567;51.660;5.824;2022-12-04T23:12:27;45.1;;;21.1;;
60718;SDS011;46567;51.660;5.824;2022-12-04T23:17:27;41.6;;;19.7;;
60718;SDS011;46567;51.660;5.824;2022-12-04T23:22:27;40.4;;;19.7;;
60718;SDS011;46567;51.660;5.824;2022-12-04T23:27:29;44.6;;;19.9;;
60718;SDS011;46567;51.660;5.824;2022-12-04T23:32:27;37.9;;;19.7;;
60718;SDS011;46567;51.660;5.824;2022-12-04T23:37:27;40.6;;;19.3;;
60718;SDS011;46567;51.660;5.824;2022-12-04T23:42:29;45.3;;;20.5;;
60718;SDS011;46567;51.660;5.824;2022-12-04T23:47:27;42.7;;;20.8;;
60718;SDS011;46567;51.660;5.824;2022-12-04T23:52:27;46.8;;;22.4;;
60718;SDS011;46567;51.660;5.824;2022-12-04T23:57:27;39.9;;;19.0;;
